EW8863 Weather Reports


Display with metric or nautical units.
time (UTC)temp
F
wind
direction
speed
MPH
gust
MPH
rain 1hr
in
rain 24hr
in
rain mn
in
humidity
%
barometer
mb
20190723161002 73 257 2.0 4.0 0.00 0.84 0.45 82 1011.0
20190723160014 73 252 3.0 7.0 0.00 0.84 0.45 83 1011.0
20190723155006 72 233 2.0 6.0 0.00 0.84 0.45 82 1011.0
20190723154005 72 252 3.0 6.0 0.00 0.84 0.45 83 1010.9
20190723153502 72 227 2.0 6.0 0.00 0.84 0.45 85 1010.9
20190723152503 71 240 3.0 9.0 0.00 0.84 0.45 88 1011.1
20190723151512 71 194 3.0 7.0 0.00 0.84 0.45 89 1011.1
20190723150505 70 265 5.0 8.0 0.00 0.84 0.45 90 1011.0
20190723145502 70 238 2.0 8.0 0.00 0.84 0.45 92 1010.9
20190723144506 69 255 3.0 8.0 0.01 0.84 0.45 92 1011.0
20190723143011 69 283 2.0 7.0 0.02 0.84 0.45 92 1010.5
20190723142002 68 292 1.0 5.0 0.03 0.84 0.45 93 1010.6
20190723141006 68 298 3.0 9.0 0.03 0.84 0.45 92 1010.8
20190723140003 68 271 3.0 9.0 0.03 0.84 0.45 92 1010.9
20190723134003 68 242 5.0 9.0 0.02 0.83 0.44 91 1011.3
20190723133506 68 265 3.0 7.0 0.01 0.82 0.43 91 1011.2
20190723132503 68 259 2.0 5.0 0.00 0.81 0.42 91 1011.3
20190723130503 69 229 5.0 8.0 0.00 0.81 0.42 91 1011.4
20190723125505 69 244 3.0 7.0 0.00 0.81 0.42 92 1011.4
20190723124504 69 255 2.0 6.0 0.00 0.81 0.42 92 1011.3
20190723123003 69 217 3.0 7.0 0.00 0.81 0.42 93 1011.2
20190723122003 68 237 3.0 8.0 0.00 0.81 0.42 94 1011.1
20190723121006 68 244 2.0 8.0 0.00 0.81 0.42 94 1010.8
20190723115003 68 252 1.0 5.0 0.01 0.81 0.42 94 1010.6
20190723113502 68 240 3.0 5.0 0.01 0.81 0.42 94 1010.7
20190723112506 68 246 2.0 5.0 0.01 0.81 0.42 94 1010.7
20190723111503 68 245 2.0 6.0 0.01 0.81 0.42 94 1010.6
20190723110503 68 223 1.0 4.0 0.02 0.81 0.42 94 1010.5
20190723105502 68 248 2.0 4.0 0.01 0.80 0.41 94 1010.3
20190723104522 68 310 0.0 2.0 0.01 0.80 0.41 94 1010.2
20190723103004 67 265 3.0 7.0 0.01 0.80 0.41 93 1010.1
20190723102006 68 238 1.0 5.0 0.01 0.80 0.41 93 1010.0
20190723101003 68 209 1.0 6.0 0.01 0.80 0.41 93 1009.9
20190723100005 68 262 3.0 7.0 0.00 0.79 0.40 93 1009.7
20190723095003 68 253 3.0 7.0 0.00 0.79 0.40 93 1009.3
20190723094003 68 241 4.0 10.0 0.00 0.79 0.40 93 1009.2
20190723093507 68 274 5.0 9.0 0.00 0.79 0.40 93 1009.1
20190723092502 68 242 5.0 11.0 0.00 0.79 0.40 93 1008.9
20190723091506 68 284 5.0 9.0 0.00 0.79 0.40 93 1008.7
20190723090502 68 263 5.0 11.0 0.00 0.79 0.40 93 1008.2
20190723085502 68 265 5.0 15.0 0.00 0.79 0.40 93 1008.1
20190723084505 67 264 6.0 10.0 0.00 0.79 0.40 93 1008.1
20190723083019 67 298 5.0 13.0 0.00 0.79 0.40 93 1007.9
20190723082008 67 254 6.0 12.0 0.00 0.79 0.40 94 1007.9
20190723081003 67 275 5.0 13.0 0.00 0.79 0.40 93 1007.6
20190723080010 67 267 6.0 14.0 0.03 0.79 0.40 94 1007.7
20190723075007 67 296 6.0 14.0 0.13 0.79 0.40 94 1007.4
20190723074003 67 314 7.0 13.0 0.24 0.79 0.40 94 1007.2
20190723073505 68 257 5.0 14.0 0.36 0.79 0.40 94 1007.2
20190723072502 68 304 8.0 17.0 0.40 0.79 0.40 94 1007.2
20190723071523 68 302 8.0 15.0 0.40 0.79 0.40 94 1007.1
20190723070505 68 316 7.0 18.0 0.39 0.78 0.39 94 1006.7
20190723065502 68 355 7.0 24.0 0.31 0.70 0.31 92 1006.3
20190723063005 73 128 2.0 6.0 0.00 0.39 0.00 91 1005.9
20190723062006 73 149 2.0 5.0 0.00 0.39 0.00 92 1006.2
20190723061003 73 182 1.0 2.0 0.00 0.39 0.00 92 1006.2
20190723060030 73 182 1.0 3.0 0.00 0.39 0.00 92 1006.3
20190723055003 73 182 0.0 4.0 0.00 0.39 0.00 91 1006.5
20190723054003 73 199 0.0 5.0 0.00 0.39 0.00 91 1006.8
20190723053503 73 166 1.0 5.0 0.00 0.39 0.00 91 1007.0
20190723052505 73 165 1.0 5.0 0.00 0.39 0.00 91 1007.0
20190723051531 73 165 1.0 3.0 0.00 0.39 0.00 91 1007.1
20190723050506 73 165 1.0 4.0 0.00 0.39 0.00 92 1007.2
20190723045503 73 252 0.0 2.0 0.00 0.39 0.00 93 1007.2
20190723044511 73 252 0.0 1.0 0.00 0.39 0.00 92 1007.1
20190723042002 73 252 0.0 1.0 0.00 0.39 0.00 90 1007.6
20190723041002 73 252 0.0 2.0 0.00 0.39 0.00 89 1007.8
20190723040020 74 252 1.0 3.0 0.00 0.39 0.39 88 1007.9
20190723035006 74 255 2.0 5.0 0.00 0.39 0.39 87 1007.8
20190723034003 74 261 2.0 9.0 0.00 0.39 0.39 86 1008.0
20190723033503 74 238 3.0 11.0 0.00 0.39 0.39 87 1008.0
20190723032505 74 234 5.0 13.0 0.00 0.39 0.39 87 1008.1
20190723031504 74 241 6.0 11.0 0.00 0.39 0.39 87 1008.0
20190723030502 75 286 5.0 12.0 0.00 0.39 0.39 86 1008.1
20190723025502 75 175 4.0 9.0 0.00 0.39 0.39 85 1007.6
20190723024511 75 231 6.0 10.0 0.00 0.39 0.39 86 1007.8
20190723023610 75 217 4.0 8.0 0.00 0.39 0.39 88 1007.3
20190723023016 75 167 4.0 7.0 0.00 0.39 0.39 89 1007.2
20190723022002 75 186 3.0 6.0 0.06 0.39 0.39 89 1007.1
20190723021004 76 216 2.0 5.0 0.08 0.39 0.39 88 1007.1
20190723020003 76 203 1.0 5.0 0.08 0.39 0.39 88 1007.0
20190723015004 76 163 3.0 5.0 0.08 0.39 0.39 87 1007.0
20190723014003 77 180 3.0 10.0 0.08 0.39 0.39 86 1007.1
20190723013502 77 191 8.0 14.0 0.08 0.39 0.39 84 1007.1
20190723012502 78 181 3.0 8.0 0.07 0.38 0.38 84 1008.1
20190723011508 78 201 2.0 5.0 0.00 0.31 0.31 81 1007.6
20190723010502 78 207 3.0 5.0 0.00 0.31 0.31 81 1007.6
20190723005502 78 207 2.0 5.0 0.00 0.31 0.31 81 1007.6
20190723004504 79 207 1.0 4.0 0.00 0.31 0.31 81 1007.6
20190723003558 79 207 0.0 5.0 0.00 0.31 0.31 81 1007.5
20190723003011 79 206 2.0 5.0 0.00 0.31 0.31 80 1007.3
20190723002006 78 192 3.0 5.0 0.00 0.31 0.31 81 1007.3
20190723001004 78 238 2.0 7.0 0.00 0.31 0.31 82 1007.3
20190723000004 78 224 1.0 5.0 0.00 0.31 0.31 83 1007.4
20190722235004 78 231 3.0 5.0 0.00 0.31 0.31 84 1007.5
20190722234003 78 243 1.0 5.0 0.00 0.31 0.31 84 1007.3
20190722233502 78 205 2.0 5.0 0.00 0.31 0.31 84 1007.2
20190722232505 78 252 3.0 5.0 0.00 0.31 0.31 83 1007.1
20190722231502 78 236 2.0 5.0 0.00 0.31 0.31 84 1006.9
20190722230502 78 261 3.0 6.0 0.00 0.31 0.31 84 1006.9
20190722225502 78 259 2.0 6.0 0.00 0.31 0.31 85 1006.9
20190722224505 77 261 2.0 5.0 0.00 0.31 0.31 86 1007.0
20190722223606 77 252 2.0 4.0 0.00 0.31 0.31 87 1007.1
20190722223021 77 252 1.0 3.0 0.00 0.31 0.31 88 1007.0
20190722222001 77 252 0.0 3.0 0.00 0.31 0.31 88 1007.2
20190722221004 77 254 1.0 3.0 0.00 0.31 0.31 88 1007.0
20190722220016 76 254 0.0 4.0 0.00 0.31 0.31 88 1007.2
20190722215006 76 265 2.0 7.0 0.00 0.31 0.31 87 1006.9
20190722214003 76 258 2.0 4.0 0.00 0.31 0.31 89 1007.0
20190722213503 76 265 2.0 7.0 0.00 0.31 0.31 88 1007.0
20190722212502 76 254 2.0 5.0 0.00 0.31 0.31 88 1007.0
20190722211514 76 245 2.0 7.0 0.00 0.31 0.31 89 1007.0
20190722210503 75 250 4.0 8.0 0.01 0.31 0.31 90 1006.9
20190722205506 75 246 3.0 8.0 0.30 0.31 0.31 90 1006.7
20190722204504 75 289 3.0 12.0 0.30 0.31 0.31 90 1006.9
20190722203554 75 269 7.0 12.0 0.31 0.31 0.31 91 1007.0
20190722203002 76 265 5.0 9.0 0.31 0.31 0.31 91 1007.0
20190722202002 76 273 8.0 16.0 0.31 0.31 0.31 90 1007.3
20190722201003 76 313 2.0 23.0 0.31 0.31 0.31 87 1007.4
20190722200012 83 221 22.0 52.0 0.08 0.08 0.08 77 1007.7
20190722195006 85 242 2.0 11.0 0.01 0.01 0.01 72 1006.4
20190722194006 89 311 9.0 17.0 0.01 0.01 0.01 62 1006.4
20190722193503 91 253 8.0 17.0 0.00 0.00 0.00 56 1006.1
20190722192506 93 204 7.0 14.0 0.00 0.00 0.00 52 1006.3
20190722191503 93 201 7.0 16.0 0.00 0.00 0.00 51 1006.4
20190722190503 94 205 6.0 19.0 0.00 0.00 0.00 51 1006.5
20190722185502 93 151 5.0 20.0 0.00 0.00 0.00 51 1006.6
20190722184504 93 218 7.0 18.0 0.00 0.00 0.00 51 1006.7
20190722184006 93 160 11.0 18.0 0.00 0.00 0.00 50 1006.8
20190722183506 93 190 5.0 18.0 0.00 0.00 0.00 49 1006.7
20190722182502 94 175 7.0 16.0 0.00 0.00 0.00 49 1006.9
20190722181504 93 207 11.0 22.0 0.00 0.00 0.00 48 1007.1
20190722180504 93 242 9.0 18.0 0.00 0.00 0.00 48 1007.1
20190722175503 93 238 8.0 15.0 0.00 0.00 0.00 50 1007.1
20190722174505 93 208 10.0 17.0 0.00 0.00 0.00 50 1007.3
20190722173553 93 189 6.0 17.0 0.00 0.00 0.00 52 1007.5
20190722173007 92 229 7.0 14.0 0.00 0.00 0.00 53 1007.6
20190722172002 91 175 9.0 15.0 0.00 0.00 0.00 52 1007.8
20190722171006 91 219 8.0 12.0 0.00 0.00 0.00 52 1007.9
20190722170008 92 249 2.0 9.0 0.00 0.00 0.00 52 1008.2
20190722165005 91 188 5.0 10.0 0.00 0.00 0.00 51 1008.2
20190722164008 91 196 7.0 13.0 0.00 0.00 0.00 51 1008.3
20190722163214 90 227 1.0 11.0 0.00 0.00 0.00 53 1008.3
20190722162552 90 141 6.0 11.0 0.00 0.00 0.00 53 1008.5
20190722161625 90 232 5.0 9.0 0.00 0.00 0.00 54 1008.7